x

West Sea Otter (46204) Wave Buoy

10:00am - Sun 28th Aug 2016 All times are PDT. -7 hours from GMT.

  • Sig Wave height 6.6ft
  • Peak Period 5s
  • Wind
    25mph, 29mph gusts
  • Sea Temp 57°f
  • 空気 Temp 55°f
  • Sea Pressure 1010.4mb
  • West Sea Otter
  • West Sea Otter

More Historic Weather Station data

Upgrade to MSW Pro to gain access to the past 30 days of data for over 8000 Wavebouys and Weather Stations around the globe.

Join Pro

Comparision Forecast

View Surf forecast
   
Sun 08/28 10:00am 6.5ft 5s 25 29 mph 1010.4mb 57f 55f
9:00am 5ft 5s 25 29 mph 1010.2mb 57f 55f
8:00am 4.5ft 4s 27 34 mph 1010.1mb 57f 55f
7:00am 3.5ft 4s 22 27 mph 1010.6mb 58f 56f
6:00am 3.5ft 8s 20 25 mph 1011.1mb 58f 56f
5:00am 3.5ft 8s 18 22 mph 1011.4mb 58f 56f
4:00am 3ft 8s 16 20 mph 1012mb 58f 57f
3:00am 3ft 8s 13 16 mph 1012.4mb 58f 57f
2:00am 3.5ft 8s 9 11 mph 1012.6mb 58f 57f
1:00am 3.5ft 8s 9
mph
1012.4mb 58f 57f
12:00am 3.5ft 8s 4 7 mph 1012.5mb 58f 57f
Sat 08/27 11:00pm 3.5ft 8s 4
mph
1012.3mb 58f 57f
10:00pm 4.5ft 8s 2 4 mph 1012.4mb 58f 57f
9:00pm 4ft 8s  -  mph 1012.5mb 58f 58f
8:00pm 4ft 8s 2
mph
1012.4mb 58f 58f
7:00pm 3.5ft 8s 4
mph
1012.5mb 59f 58f
6:00pm 4.5ft 8s 7
mph
1012.7mb 59f 59f
5:00pm 3.5ft 8s 4 7 mph 1012.7mb 59f 59f
4:00pm 3.5ft 8s 4 7 mph 1012.8mb 59f 58f
3:00pm 3.5ft 8s 7
mph
1012.6mb 59f 58f
2:00pm 4ft 8s 7
mph
1012.8mb 58f 57f
1:00pm 4.5ft 8s 7 9 mph 1012.7mb 58f 57f
12:00pm 4ft 8s 7 9 mph 1012.5mb 58f 57f
11:00am 4.5ft 6s 4 7 mph 1012.1mb 58f 57f
10:00am 4.5ft 8s 4 7 mph 1012mb 57f 57f
9:00am 4.5ft 7s 4 7 mph 1012.2mb 57f 57f
8:00am 4.5ft 7s 2 4 mph 1012.4mb 57f 58f
7:00am 4.5ft 7s 4
mph
1012.6mb 57f 58f
6:00am 4.5ft 7s 4 7 mph 1012.8mb 57f 58f
5:00am 4.5ft 7s 9 11 mph 1013.1mb 57f 58f
4:00am 4.5ft 8s 9 11 mph 1013.3mb 57f 58f
3:00am 3.5ft 7s 7 9 mph 1013.3mb 57f 58f
2:00am 4ft 7s 9 11 mph 1013.4mb 57f 58f
1:00am 4.5ft 7s 11 13 mph 1013.3mb 57f 58f
12:00am 4ft 7s 13 18 mph 1013.3mb 57f 58f
Fri 08/26 11:00pm 4.5ft 7s 13 16 mph 1013.6mb 57f 58f
10:00pm 4.5ft 7s 9 11 mph 1013.8mb 57f 58f
9:00pm 4.5ft 6s 11 13 mph 1013.8mb 57f 58f
8:00pm 5ft 7s 9 13 mph 1013.7mb 57f 58f
7:00pm 5ft 8s 18 20 mph 1013.9mb 57f 58f
6:00pm 6ft 8s 16 18 mph 1014.4mb 57f 58f
5:00pm 6ft 7s 18 20 mph 1015mb 58f 59f
4:00pm 6ft 8s 18 22 mph 1015.2mb 57f 59f
3:00pm 6.5ft 7s 16 18 mph 1015.7mb 57f 59f
2:00pm 7ft 8s 13 20 mph 1016.1mb 57f 58f
1:00pm 7ft 8s 18 20 mph 1016.1mb 57f 58f
12:00pm 8ft 8s 22 27 mph 1016mb 57f 57f
11:00am 8ft 7s 18 25 mph 1016mb 56f 57f
10:00am 8.5ft 8s 20 25 mph 1016mb 56f 58f
9:00am 9ft 8s 18 22 mph 1016.4mb 56f 57f
8:00am 8ft 8s 18 22 mph 1016.3mb 56f 58f
7:00am 8ft 8s 27 31 mph 1015.5mb 56f 58f
6:00am 8ft 8s 22 31 mph 1016.3mb 56f 58f
5:00am 8ft 8s 18 20 mph 1016.5mb 57f 58f
4:00am 8ft 8s 16 22 mph 1016.7mb 57f 58f
3:00am 8ft 8s 20 25 mph 1016.7mb 57f 58f
2:00am 8.5ft 8s 18 22 mph 1017.4mb 57f 58f
1:00am 8.5ft 7s 25 27 mph 1017.3mb 58f 59f
12:00am 8ft 8s 25 29 mph 1017.4mb 57f 59f
Thu 08/25 11:00pm 7ft 7s 22 25 mph 1017.7mb 57f 59f
10:00pm 7ft 8s 22 27 mph 1017.7mb 57f 59f
9:00pm 7.5ft 8s 22 27 mph 1018.3mb 57f 59f
8:00pm 8ft 8s 22 27 mph 1018.2mb 57f 59f
7:00pm 8ft 8s 20 25 mph 1018.6mb 58f 58f
6:00pm 7.5ft 8s 22 27 mph 1019.1mb 58f 58f
5:00pm 8ft 8s 18 22 mph 1020mb 58f 58f
4:00pm 8ft 8s 18 22 mph 1020.6mb 58f 58f
3:00pm 8ft 7s 18 20 mph 1021.4mb 58f 58f
2:00pm 8ft 7s 18 20 mph 1022mb 58f 57f
1:00pm 8ft 8s 18 22 mph 1022.4mb 58f 57f
12:00pm 8ft 8s 18 22 mph 1022.8mb 57f 56f
11:00am 8ft 8s 18 22 mph 1023.6mb 57f 56f
10:00am 7.5ft 8s 20 22 mph 1023.7mb 57f 56f
9:00am 7.5ft 8s 18 20 mph 1024mb 57f 57f
8:00am 8ft 8s 18 25 mph 1024.1mb 57f 57f
7:00am 8.5ft 7s 20 22 mph 1024mb 57f 57f
6:00am 9ft 8s 18 22 mph 1023.9mb 57f 57f
5:00am 9ft 7s 18
mph
1024mb 57f 57f
4:00am 9ft 8s 20 27 mph 1024mb 57f 58f
3:00am 10ft 8s 20 27 mph 1024.2mb 57f 58f
2:00am 9ft 8s 20 25 mph 1024.3mb 57f 58f
1:00am 9ft 8s 22 27 mph 1024.4mb 57f 58f
12:00am 8ft 8s 20 25 mph 1024.6mb 57f 59f
Wed 08/24 11:00pm 7ft 8s 22 27 mph 1024.6mb 58f 59f
10:00pm 7.5ft 7s 22 29 mph 1024.7mb 58f 59f
9:00pm 7ft 8s 22
mph
1024.9mb 58f 60f
8:00pm 7ft 7s 20 25 mph 1024.7mb 58f 60f
7:00pm 6ft 7s 20 22 mph 1024.9mb 58f 59f